Time;durP1;ratioP1;P1;durP2;ratioP2;P2;SDS_P1;SDS_P2;PMS_P1;PMS_P2;Temp;Humidity;BMP_temperature;BMP_pressure;BME280_temperature;BME280_humidity;BME280_pressure;Samples;Min_cycle;Max_cycle;Signal;HPM_P1;HPM_P2
2022/06/23 00:06:02;;;;;;;10.93;7.37;;;21.50;90.90;;;;;;21002727;28;20205;-64
2022/06/23 00:16:06;;;;;;;11.90;7.80;;;21.50;91.40;;;;;;20984681;28;20238;-65
2022/06/23 00:26:17;;;;;;;12.03;7.40;;;21.40;91.30;;;;;;21001675;28;20210;-66
2022/06/23 00:36:37;;;;;;;15.30;8.10;;;21.20;91.70;;;;;;21000968;28;20236;-65
2022/06/23 00:46:47;;;;;;;9.77;7.90;;;21.20;91.90;;;;;;21000003;28;20239;-67
2022/06/23 00:57:15;;;;;;;12.77;8.33;;;21.00;92.20;;;;;;20999003;28;20237;-65
2022/06/23 01:07:38;;;;;;;10.43;8.70;;;20.80;92.40;;;;;;20998559;28;20213;-67
2022/06/23 01:17:50;;;;;;;17.83;8.53;;;20.60;92.70;;;;;;20996294;28;20738;-63
2022/06/23 01:28:03;;;;;;;11.07;8.00;;;20.50;92.90;;;;;;20997226;28;20206;-69
2022/06/23 01:38:26;;;;;;;10.57;8.07;;;20.60;93.10;;;;;;20996192;28;20233;-72
2022/06/23 01:48:53;;;;;;;11.67;8.53;;;20.50;93.30;;;;;;20996399;28;20238;-68
2022/06/23 01:59:03;;;;;;;8.87;7.50;;;20.40;93.50;;;;;;20995474;28;20700;-69
2022/06/23 02:09:31;;;;;;;11.23;7.60;;;20.40;93.70;;;;;;20995219;28;20216;-72
2022/06/23 02:19:48;;;;;;;13.27;8.50;;;20.30;93.80;;;;;;20994773;28;20618;-63
2022/06/23 02:30:05;;;;;;;11.60;8.70;;;20.20;94.10;;;;;;21039195;28;20208;-76
2022/06/23 02:40:16;;;;;;;9.87;8.40;;;20.10;94.20;;;;;;21028790;28;20727;-66
2022/06/23 02:50:39;;;;;;;12.50;8.90;;;19.90;94.40;;;;;;21011611;28;20217;-63
2022/06/23 03:00:57;;;;;;;15.70;9.70;;;19.80;94.40;;;;;;21008885;28;20586;-63
2022/06/23 03:22:03;;;;;;;12.13;8.77;;;19.50;95.00;;;;;;21006648;28;20294;-65
2022/06/23 03:32:19;;;;;;;10.90;8.87;;;19.30;95.10;;;;;;20987825;28;20209;-69
2022/06/23 03:42:28;;;;;;;11.07;9.30;;;19.30;95.30;;;;;;21005613;28;20245;-63
2022/06/23 03:52:37;;;;;;;15.30;9.37;;;19.30;95.30;;;;;;21005246;28;20216;-69
2022/06/23 04:02:46;;;;;;;12.80;9.00;;;19.30;95.50;;;;;;20986184;28;20232;-65
2022/06/23 04:12:54;;;;;;;11.80;9.00;;;19.40;95.50;;;;;;21003364;28;20663;-69
2022/06/23 04:22:59;;;;;;;13.83;9.50;;;19.20;95.60;;;;;;21002054;28;20319;-65
2022/06/23 04:33:04;;;;;;;13.10;9.33;;;19.20;95.80;;;;;;21001692;28;20212;-67
2022/06/23 04:43:12;;;;;;;14.83;9.40;;;19.30;95.80;;;;;;21006438;28;20234;-65
2022/06/23 04:53:30;;;;;;;15.93;10.00;;;19.50;96.00;;;;;;21001181;28;20261;-71
2022/06/23 05:03:44;;;;;;;24.83;10.90;;;19.60;95.90;;;;;;21007683;28;20247;-63
2022/06/23 05:13:50;;;;;;;17.57;11.00;;;19.70;95.80;;;;;;21000282;28;20212;-64
2022/06/23 05:24:01;;;;;;;37.33;11.63;;;19.80;95.90;;;;;;20998555;28;20719;-66
2022/06/23 05:34:14;;;;;;;17.47;9.77;;;20.00;95.90;;;;;;20997269;28;20205;-66
2022/06/23 05:44:54;;;;;;;20.53;10.20;;;20.30;95.80;;;;;;20996829;28;20247;-71
2022/06/23 05:55:23;;;;;;;20.53;10.57;;;20.50;95.70;;;;;;20969028;28;20209;-70
2022/06/23 06:05:32;;;;;;;28.03;13.27;;;20.60;95.60;;;;;;20990551;28;20912;-67
2022/06/23 06:15:39;;;;;;;20.13;11.40;;;20.70;95.60;;;;;;20992639;28;20252;-65
2022/06/23 06:25:48;;;;;;;18.27;11.00;;;21.00;95.70;;;;;;20993694;28;20237;-65
2022/06/23 06:35:54;;;;;;;16.37;11.00;;;21.20;95.70;;;;;;20992441;28;20220;-65
2022/06/23 06:45:57;;;;;;;22.07;12.07;;;21.50;95.70;;;;;;20991705;28;20246;-65
2022/06/23 06:56:06;;;;;;;17.23;10.87;;;21.80;95.70;;;;;;20990520;28;20663;-65
2022/06/23 07:06:14;;;;;;;15.30;10.00;;;22.00;95.70;;;;;;20989512;28;20237;-66
2022/06/23 07:16:19;;;;;;;17.93;7.83;;;22.30;95.70;;;;;;21002399;28;20273;-66
2022/06/23 07:26:39;;;;;;;17.10;7.60;;;22.70;95.70;;;;;;21004364;28;20207;-67
2022/06/23 07:36:55;;;;;;;13.37;7.27;;;23.00;95.50;;;;;;20987673;28;20250;-73
2022/06/23 07:46:57;;;;;;;19.23;5.13;;;23.30;95.30;;;;;;21007424;28;20274;-65
2022/06/23 07:56:59;;;;;;;13.27;4.80;;;23.60;94.90;;;;;;21009697;28;20227;-68
2022/06/23 08:07:03;;;;;;;12.97;4.77;;;23.80;94.40;;;;;;21003026;28;20207;-64
2022/06/23 08:17:14;;;;;;;9.77;3.90;;;24.20;94.00;;;;;;21001823;28;20235;-67
2022/06/23 08:27:19;;;;;;;15.63;4.50;;;24.40;93.20;;;;;;21000529;28;20203;-67
2022/06/23 08:37:23;;;;;;;14.70;3.90;;;24.70;92.50;;;;;;21000089;28;20235;-68
2022/06/23 08:47:53;;;;;;;10.43;4.00;;;24.90;91.90;;;;;;20999462;28;20234;-65
2022/06/23 08:58:16;;;;;;;11.73;4.13;;;25.20;91.00;;;;;;20987533;28;20237;-66
2022/06/23 09:08:46;;;;;;;12.57;4.03;;;25.30;90.60;;;;;;20998068;28;20204;-65
2022/06/23 09:19:24;;;;;;;10.33;3.80;;;25.70;89.90;;;;;;20997532;28;20618;-71
2022/06/23 09:29:45;;;;;;;14.20;4.17;;;25.80;88.40;;;;;;20995703;28;20251;-70
2022/06/23 09:40:07;;;;;;;11.90;3.30;;;26.10;87.00;;;;;;20995091;28;20234;-67
2022/06/23 09:50:28;;;;;;;7.20;3.20;;;26.40;84.80;;;;;;20995197;28;20550;-67
2022/06/23 10:00:56;;;;;;;11.37;3.17;;;26.50;83.30;;;;;;20994722;28;20296;-66
2022/06/23 10:11:40;;;;;;;10.40;3.67;;;26.70;81.40;;;;;;20994538;28;20583;-69
2022/06/23 10:21:54;;;;;;;10.70;3.87;;;26.90;79.80;;;;;;20994863;28;20230;-65
2022/06/23 10:32:02;;;;;;;7.67;3.43;;;26.90;78.60;;;;;;21025190;28;20243;-64
2022/06/23 10:42:21;;;;;;;7.10;3.10;;;27.00;77.10;;;;;;20995410;28;20244;-65
2022/06/23 10:52:37;;;;;;;9.20;3.73;;;27.20;75.50;;;;;;21012085;28;20268;-65
2022/06/23 11:03:09;;;;;;;10.40;3.33;;;27.40;73.80;;;;;;21010175;28;20227;-65
2022/06/23 11:13:45;;;;;;;7.07;3.70;;;27.60;72.30;;;;;;21008014;28;20691;-74
2022/06/23 11:23:53;;;;;;;9.53;3.77;;;27.60;70.70;;;;;;21006898;28;20227;-70
2022/06/23 11:34:21;;;;;;;7.43;3.53;;;27.80;69.20;;;;;;21006152;28;20214;-68
2022/06/23 11:44:59;;;;;;;6.90;3.17;;;28.10;67.80;;;;;;20958635;28;20608;-73
2022/06/23 11:55:25;;;;;;;9.63;3.27;;;28.20;66.50;;;;;;21003784;28;20206;-69
2022/06/23 12:05:53;;;;;;;5.33;3.00;;;28.20;65.70;;;;;;20997916;28;20469;-69
2022/06/23 12:15:55;;;;;;;9.38;3.45;;;28.40;64.40;;;;;;20924843;28;20291;-67
2022/06/23 12:26:07;;;;;;;9.65;3.42;;;28.40;63.50;;;;;;20919635;28;20305;-65
2022/06/23 12:36:34;;;;;;;8.73;3.00;;;28.80;62.30;;;;;;20918406;28;20203;-65
2022/06/23 12:46:49;;;;;;;5.82;2.80;;;28.90;61.30;;;;;;20929359;28;20243;-65
2022/06/23 12:57:11;;;;;;;8.73;3.30;;;29.20;60.00;;;;;;20953732;28;20667;-69
2022/06/23 13:07:22;;;;;;;5.80;3.03;;;29.20;59.10;;;;;;20916781;28;20207;-65
2022/06/23 13:17:49;;;;;;;7.13;2.85;;;29.40;58.20;;;;;;20915046;28;20227;-69
2022/06/23 13:27:54;;;;;;;11.73;3.08;;;29.20;58.00;;;;;;20914130;28;20582;-67
2022/06/23 13:38:44;;;;;;;4.25;2.88;;;29.40;57.30;;;;;;20949654;28;20227;-69
2022/06/23 13:48:49;;;;;;;6.47;2.90;;;29.50;56.70;;;;;;20855571;28;20204;-67
2022/06/23 13:59:08;;;;;;;6.13;2.70;;;29.60;56.10;;;;;;20827480;28;20232;-67
2022/06/23 14:09:19;;;;;;;6.53;3.10;;;29.40;56.00;;;;;;20828204;28;20208;-72
2022/06/23 14:19:46;;;;;;;4.07;2.50;;;29.30;55.70;;;;;;20834592;28;20335;-73
2022/06/23 14:29:58;;;;;;;5.38;2.17;;;29.50;55.60;;;;;;20844118;28;20660;-70
2022/06/23 14:40:03;;;;;;;4.40;2.53;;;29.80;54.90;;;;;;20854474;28;20587;-66
2022/06/23 14:50:28;;;;;;;5.75;1.90;;;29.60;54.60;;;;;;20925560;28;20196;-66
2022/06/23 15:00:50;;;;;;;5.90;1.80;;;29.70;54.50;;;;;;20925495;28;20247;-68
2022/06/23 15:11:01;;;;;;;5.63;2.00;;;29.70;54.20;;;;;;20922807;28;20203;-73
2022/06/23 15:32:07;;;;;;;3.78;1.52;;;30.30;53.60;;;;;;20921284;28;20253;-64
2022/06/23 15:42:19;;;;;;;14.18;4.00;;;30.10;53.20;;;;;;20921763;28;20246;-68
2022/06/23 15:52:42;;;;;;;6.55;1.52;;;29.50;54.50;;;;;;20921368;28;20243;-66
2022/06/23 16:02:59;;;;;;;22.65;3.70;;;29.60;54.00;;;;;;20920662;28;20236;-68
2022/06/23 16:13:04;;;;;;;49.15;3.78;;;;;;;;;;20919912;28;20221;-71
2022/06/23 16:23:06;;;;;;;7.85;1.95;;;;;;;;;;20928423;28;20226;-71
2022/06/23 16:33:17;;;;;;;9.32;2.20;;;;;;;;;;21002556;28;20217;-73
2022/06/23 16:43:22;;;;;;;4.82;1.85;;;;;;;;;;21000416;28;20238;-71
2022/06/23 16:53:39;;;;;;;36.95;4.03;;;;;;;;;;21000270;28;20210;-76
2022/06/23 17:03:41;;;;;;;23.90;3.38;;;;;;;;;;21002839;28;20231;-71
2022/06/23 17:13:49;;;;;;;16.10;3.47;;;;;;;;;;21004929;28;20210;-65
2022/06/23 17:23:53;;;;;;;7.40;3.75;;;;;;;;;;20996447;28;20239;-75
2022/06/23 17:34:05;;;;;;;10.32;3.45;;;;;;;;;;20996335;28;20257;-73
2022/06/23 17:44:10;;;;;;;13.85;3.75;;;;;;;;;;20995317;28;20245;-72
2022/06/23 17:54:14;;;;;;;9.85;3.72;;;;;;;;;;20991232;28;20207;-71
2022/06/23 18:04:17;;;;;;;7.05;3.83;;;;;;;;;;20992219;28;20280;-72
2022/06/23 18:14:25;;;;;;;6.60;3.53;;;;;;;;;;21000187;28;20246;-73
2022/06/23 18:24:38;;;;;;;6.32;3.30;;;;;;;;;;20995681;28;20285;-72
2022/06/23 18:34:40;;;;;;;7.57;3.60;;;;;;;;;;20993201;28;20218;-71
2022/06/23 18:44:54;;;;;;;7.22;2.83;;;;;;;;;;20994814;28;20579;-73
2022/06/23 18:55:04;;;;;;;7.83;2.83;;;;;;;;;;21005697;28;20203;-70
2022/06/23 19:05:06;;;;;;;7.65;2.88;;;;;;;;;;21044602;28;20237;-74
2022/06/23 19:15:18;;;;;;;8.63;3.40;;;;;;;;;;21048071;28;20211;-68
2022/06/23 19:25:40;;;;;;;7.17;3.10;;;;;;;;;;21031359;28;20230;-72
2022/06/23 19:35:48;;;;;;;3.40;2.77;;;;;;;;;;21079755;28;20207;-74
2022/06/23 19:46:15;;;;;;;6.83;2.87;;;;;;;;;;21021475;28;20235;-74
2022/06/23 19:56:18;;;;;;;7.87;3.10;;;;;;;;;;21051330;28;20214;-74
2022/06/23 20:06:45;;;;;;;4.70;2.80;;;;;;;;;;21067261;28;20234;-73
2022/06/23 20:16:52;;;;;;;8.37;3.40;;;;;;;;;;20983138;28;20214;-72
2022/06/23 20:27:04;;;;;;;9.00;5.17;;;;;;;;;;21001544;28;20238;-71
2022/06/23 20:37:25;;;;;;;5.70;3.53;;;;;;;;;;21000896;28;20217;-73
2022/06/23 20:47:43;;;;;;;5.53;3.00;;;;;;;;;;20999613;28;20281;-74
2022/06/23 20:57:49;;;;;;;7.10;3.10;;;;;;;;;;20998792;28;20211;-72
2022/06/23 21:07:55;;;;;;;12.67;3.60;;;;;;;;;;20955183;28;20219;-71
2022/06/23 21:17:57;;;;;;;10.20;2.90;;;;;;;;;;20914644;28;20223;-71
2022/06/23 21:28:09;;;;;;;7.87;3.23;;;;;;;;;;20913995;28;20239;-72
2022/06/23 21:38:14;;;;;;;8.97;3.40;;;;;;;;;;20913253;28;20242;-71
2022/06/23 21:48:16;;;;;;;10.30;3.50;;;;;;;;;;20973189;28;20258;-72
2022/06/23 21:58:27;;;;;;;9.97;3.30;;;;;;;;;;21019549;28;20227;-71
2022/06/23 22:08:35;;;;;;;8.40;3.60;;;;;;;;;;21013395;28;20627;-72
2022/06/23 22:18:42;;;;;;;9.50;3.40;;;;;;;;;;20965066;28;20592;-72
2022/06/23 22:29:07;;;;;;;8.43;3.70;;;;;;;;;;20909659;28;20204;-71
2022/06/23 22:39:19;;;;;;;11.03;3.63;;;;;;;;;;20906191;28;20240;-72
2022/06/23 22:49:26;;;;;;;7.77;3.60;;;;;;;;;;20926612;28;20222;-72
2022/06/23 22:59:51;;;;;;;13.77;3.67;;;;;;;;;;20933203;28;20326;-73
2022/06/23 23:09:55;;;;;;;9.70;3.93;;;;;;;;;;20906554;28;20581;-70
2022/06/23 23:19:57;;;;;;;9.40;3.60;;;;;;;;;;20925783;28;20698;-72
2022/06/23 23:30:01;;;;;;;9.47;3.87;;;;;;;;;;20923884;28;20218;-72
2022/06/23 23:40:11;;;;;;;8.80;3.70;;;;;;;;;;20927697;28;20248;-73
2022/06/23 23:50:17;;;;;;;8.60;3.87;;;;;;;;;;20912156;28;20221;-72
